createdAt,value
2019-05-23T00:00:53.509Z,72.47
2019-05-23T00:03:23.902Z,73.10
2019-05-23T00:06:08.875Z,73.95
2019-05-23T00:08:37.869Z,73.57
2019-05-23T00:11:26.656Z,72.31
2019-05-23T00:14:00.535Z,71.14
2019-05-23T00:16:30.811Z,71.37
2019-05-23T00:19:00.469Z,72.32
2019-05-23T00:21:28.938Z,73.82
2019-05-23T00:23:58.553Z,73.95
2019-05-23T00:26:27.419Z,72.64
2019-05-23T00:29:09.442Z,73.49
2019-05-23T00:31:37.346Z,72.87
2019-05-23T00:34:07.290Z,72.83
2019-05-23T00:36:38.000Z,73.09
2019-05-23T00:39:08.955Z,72.61
2019-05-23T00:41:39.657Z,72.70
2019-05-23T00:44:08.523Z,73.68
2019-05-23T00:46:37.918Z,74.63
2019-05-23T00:49:08.214Z,75.10
2019-05-23T00:51:36.884Z,72.98
2019-05-23T00:54:07.110Z,73.58
2019-05-23T00:56:37.130Z,73.52
2019-05-23T00:59:06.879Z,74.04
2019-05-23T01:01:37.894Z,73.95
2019-05-23T01:04:07.193Z,75.49
2019-05-23T01:06:38.392Z,74.39
2019-05-23T01:09:07.915Z,75.83
2019-05-23T01:11:36.859Z,75.58
2019-05-23T01:14:05.791Z,73.77
2019-05-23T01:16:34.251Z,73.27
2019-05-23T01:19:04.638Z,73.29
2019-05-23T01:21:51.063Z,72.98
2019-05-23T01:24:36.180Z,73.37
2019-05-23T01:27:07.118Z,73.81
2019-05-23T01:29:40.956Z,75.03
2019-05-23T01:32:14.912Z,75.17
2019-05-23T01:34:45.070Z,75.67
2019-05-23T01:37:13.750Z,75.89
2019-05-23T01:39:42.773Z,75.94
2019-05-23T01:42:12.205Z,75.98
2019-05-23T01:44:41.057Z,74.29
2019-05-23T01:47:09.926Z,75.60
2019-05-23T01:49:38.877Z,75.22
2019-05-23T01:52:08.742Z,75.85
2019-05-23T01:54:37.925Z,75.16
2019-05-23T01:57:07.944Z,76.77
2019-05-23T01:59:36.983Z,76.16
2019-05-23T02:02:07.033Z,76.09
2019-05-23T02:04:36.087Z,74.85
2019-05-23T02:07:05.545Z,73.51
2019-05-23T02:09:34.622Z,74.45
2019-05-23T02:12:06.067Z,75.47
2019-05-23T02:14:34.746Z,76.29
2019-05-23T02:17:03.852Z,76.70
2019-05-23T02:19:32.380Z,77.43
2019-05-23T02:22:01.961Z,76.78
2019-05-23T02:24:31.484Z,76.28
2019-05-23T02:27:00.521Z,76.84
2019-05-23T02:29:29.802Z,77.24
2019-05-23T02:31:59.955Z,78.19
2019-05-23T02:34:28.819Z,77.50
2019-05-23T02:36:58.612Z,76.93
2019-05-23T02:39:34.466Z,77.67
2019-05-23T02:42:04.904Z,76.73
2019-05-23T02:44:34.416Z,75.63
2019-05-23T02:47:05.182Z,75.23
2019-05-23T02:49:34.576Z,75.37
2019-05-23T02:52:22.786Z,75.82
2019-05-23T02:54:54.196Z,75.55
2019-05-23T02:57:26.681Z,75.85
2019-05-23T02:59:59.244Z,75.80
2019-05-23T03:02:52.621Z,75.74
2019-05-23T03:05:22.802Z,74.44
2019-05-23T03:07:54.078Z,74.74
2019-05-23T03:10:24.118Z,75.57
2019-05-23T03:12:52.728Z,77.80
2019-05-23T03:15:24.745Z,78.10
2019-05-23T03:17:55.515Z,78.21
2019-05-23T03:20:25.124Z,78.23
2019-05-23T03:23:00.120Z,78.78
2019-05-23T03:25:39.590Z,78.02
2019-05-23T03:28:09.769Z,78.20
2019-05-23T03:30:40.081Z,77.40
2019-05-23T03:33:13.173Z,76.67
2019-05-23T03:35:52.291Z,77.96
2019-05-23T03:38:20.651Z,78.33
2019-05-23T03:40:49.548Z,76.90
2019-05-23T03:43:17.943Z,76.62
2019-05-23T03:45:51.276Z,76.87
2019-05-23T03:48:20.581Z,76.73
2019-05-23T03:50:50.635Z,76.53
2019-05-23T03:53:20.668Z,75.69
2019-05-23T03:55:50.133Z,76.27
2019-05-23T03:58:20.875Z,76.36
2019-05-23T04:00:50.930Z,76.68
2019-05-23T04:03:19.647Z,77.43
2019-05-23T04:05:49.231Z,77.87
2019-05-23T04:08:17.710Z,77.99
2019-05-23T04:10:50.783Z,77.99
2019-05-23T04:13:17.379Z,78.31
2019-05-23T04:15:46.130Z,78.03
2019-05-23T04:18:15.095Z,77.33
2019-05-23T04:20:43.868Z,75.99
2019-05-23T04:23:12.499Z,75.74
2019-05-23T04:25:40.989Z,76.56
2019-05-23T04:28:09.364Z,77.52
2019-05-23T04:30:37.789Z,77.30
2019-05-23T04:33:07.007Z,77.28
2019-05-23T04:35:35.921Z,77.02
2019-05-23T04:38:05.750Z,77.43
2019-05-23T04:40:34.307Z,77.84
2019-05-23T04:43:02.700Z,78.89
2019-05-23T04:45:31.307Z,80.53
2019-05-23T04:48:00.148Z,80.74
2019-05-23T04:50:29.664Z,81.35
2019-05-23T04:52:58.512Z,79.14
2019-05-23T04:55:27.169Z,78.54
2019-05-23T04:57:55.806Z,77.48
2019-05-23T05:00:24.972Z,77.16
2019-05-23T05:02:54.733Z,77.70
2019-05-23T05:05:23.660Z,77.53
2019-05-23T05:07:52.105Z,76.97
2019-05-23T05:10:23.558Z,76.38
2019-05-23T05:12:52.204Z,75.76
2019-05-23T05:15:20.942Z,75.62
2019-05-23T05:17:49.354Z,74.97
2019-05-23T05:20:18.004Z,73.59
2019-05-23T05:22:47.236Z,71.84
2019-05-23T05:25:17.355Z,71.11
2019-05-23T05:27:46.437Z,71.34
2019-05-23T05:30:16.401Z,70.49
2019-05-23T05:32:45.798Z,69.76
2019-05-23T05:35:15.698Z,69.25
2019-05-23T05:37:44.126Z,68.77
2019-05-23T05:40:13.370Z,68.52
2019-05-23T05:42:43.651Z,67.70
2019-05-23T05:45:12.330Z,66.62
2019-05-23T05:47:41.249Z,66.83
2019-05-23T05:50:10.956Z,64.33
2019-05-23T05:52:40.098Z,64.86
2019-05-23T05:55:09.245Z,63.73
2019-05-23T05:57:37.808Z,63.56
2019-05-23T06:00:12.959Z,62.69
2019-05-23T06:02:41.086Z,62.72
2019-05-23T06:05:11.497Z,61.83
2019-05-23T06:07:41.553Z,60.85
2019-05-23T06:10:12.270Z,60.60
2019-05-23T06:12:40.886Z,59.66
2019-05-23T06:15:11.301Z,59.93
2019-05-23T06:17:39.803Z,58.45
2019-05-23T06:20:08.753Z,57.67
2019-05-23T06:22:37.144Z,58.36
2019-05-23T06:25:08.438Z,57.04
2019-05-23T06:27:38.316Z,56.66
2019-05-23T06:30:10.582Z,56.27
2019-05-23T06:32:39.847Z,56.54
2019-05-23T06:35:08.596Z,55.89
2019-05-23T06:37:37.252Z,56.01
2019-05-23T06:40:09.193Z,55.86
2019-05-23T06:42:38.545Z,55.20
2019-05-23T06:45:10.841Z,54.07
2019-05-23T06:47:39.902Z,53.71
2019-05-23T06:50:18.618Z,52.46
2019-05-23T06:52:47.120Z,52.60
2019-05-23T06:55:16.430Z,53.05
2019-05-23T06:57:44.796Z,52.60
2019-05-23T07:00:14.986Z,51.59
2019-05-23T07:02:43.906Z,52.81
2019-05-23T07:05:13.074Z,53.23
2019-05-23T07:07:42.738Z,51.20
2019-05-23T07:10:11.376Z,51.71
2019-05-23T07:12:39.958Z,52.31
2019-05-23T07:15:08.823Z,51.15
2019-05-23T07:17:38.109Z,50.98
2019-05-23T07:20:07.962Z,50.07
2019-05-23T07:22:36.799Z,48.53
2019-05-23T07:25:08.945Z,47.72
2019-05-23T07:27:37.752Z,46.67
2019-05-23T07:30:09.715Z,47.08
2019-05-23T07:32:38.202Z,47.70
2019-05-23T07:35:06.690Z,45.96
2019-05-23T07:37:35.155Z,46.06
2019-05-23T07:40:05.006Z,43.97
2019-05-23T07:42:33.491Z,43.40
2019-05-23T07:45:05.123Z,43.62
2019-05-23T07:47:34.321Z,43.73
2019-05-23T07:50:03.371Z,44.92
2019-05-23T07:52:32.056Z,44.74
2019-05-23T07:55:02.112Z,43.49
2019-05-23T07:57:30.859Z,42.71
2019-05-23T07:59:59.319Z,43.58
2019-05-23T08:02:33.272Z,42.79
2019-05-23T08:05:02.061Z,42.94
2019-05-23T08:07:32.777Z,42.01
2019-05-23T08:10:00.605Z,42.48
2019-05-23T08:12:29.547Z,43.17
2019-05-23T08:14:58.193Z,43.78
2019-05-23T08:17:27.531Z,43.74
2019-05-23T08:19:55.938Z,42.79
2019-05-23T08:22:24.834Z,42.53
2019-05-23T08:24:53.782Z,43.38
2019-05-23T08:27:22.573Z,43.41
2019-05-23T08:29:51.309Z,42.85
2019-05-23T08:32:19.802Z,42.17
2019-05-23T08:34:48.548Z,41.25
2019-05-23T08:37:17.516Z,40.63
2019-05-23T08:39:46.918Z,37.03
2019-05-23T08:42:15.620Z,39.57
2019-05-23T08:44:44.397Z,38.21
2019-05-23T08:47:14.145Z,37.50
2019-05-23T08:49:43.086Z,38.25
2019-05-23T08:52:11.497Z,40.48
2019-05-23T08:54:40.163Z,38.00
2019-05-23T08:57:08.728Z,37.97
2019-05-23T08:59:37.372Z,38.06
2019-05-23T09:02:06.955Z,37.85
2019-05-23T09:04:35.890Z,36.08
2019-05-23T09:07:04.589Z,34.90
2019-05-23T09:09:33.763Z,36.33
2019-05-23T09:12:03.881Z,35.60
2019-05-23T09:14:32.299Z,34.38
2019-05-23T09:17:01.145Z,33.40
2019-05-23T09:19:29.822Z,35.50
2019-05-23T09:21:58.397Z,34.58
2019-05-23T09:24:27.442Z,32.51
2019-05-23T09:26:56.477Z,32.64
2019-05-23T09:29:25.266Z,31.04
2019-05-23T09:31:53.661Z,31.10
2019-05-23T09:34:22.633Z,32.45
2019-05-23T09:36:51.196Z,31.65
2019-05-23T09:39:21.253Z,31.26
2019-05-23T09:41:49.828Z,31.53
2019-05-23T09:44:18.328Z,32.67
2019-05-23T09:46:46.724Z,33.71
2019-05-23T09:49:15.200Z,33.71
2019-05-23T09:51:43.600Z,31.90
2019-05-23T09:54:12.435Z,33.23
2019-05-23T09:56:41.366Z,35.47
2019-05-23T09:59:09.786Z,34.31
2019-05-23T10:01:38.260Z,33.12
2019-05-23T10:04:07.752Z,34.50
2019-05-23T10:06:36.798Z,30.90
2019-05-23T10:09:07.833Z,30.24
2019-05-23T10:11:36.348Z,30.39
2019-05-23T10:14:07.037Z,32.54
2019-05-23T10:16:35.757Z,33.15
2019-05-23T10:19:04.545Z,32.37
2019-05-23T10:21:33.037Z,31.79
2019-05-23T10:24:01.463Z,33.65
2019-05-23T10:26:29.901Z,31.15
2019-05-23T10:28:58.325Z,32.31
2019-05-23T10:31:26.896Z,30.44
2019-05-23T10:33:55.591Z,29.38
2019-05-23T10:36:24.262Z,30.95
2019-05-23T10:38:52.720Z,29.82
2019-05-23T10:41:21.583Z,31.27
2019-05-23T10:43:50.080Z,29.94
2019-05-23T10:46:18.617Z,31.32
2019-05-23T10:48:47.365Z,33.93
2019-05-23T10:51:15.758Z,31.14
2019-05-23T10:53:44.217Z,32.64
2019-05-23T10:56:13.361Z,32.10
2019-05-23T10:58:41.838Z,29.10
2019-05-23T11:01:10.730Z,28.08
2019-05-23T11:03:39.158Z,28.56
2019-05-23T11:06:16.223Z,29.93
2019-05-23T11:08:38.282Z,29.67
2019-05-23T11:11:07.407Z,28.33
2019-05-23T11:13:36.093Z,29.66
2019-05-23T11:16:04.979Z,28.50
2019-05-23T11:18:33.448Z,28.50
2019-05-23T11:21:02.019Z,29.10
2019-05-23T11:23:35.101Z,29.10
2019-05-23T11:26:03.926Z,29.13
2019-05-23T11:28:35.205Z,29.13
2019-05-23T11:31:05.421Z,28.34
2019-05-23T11:33:34.130Z,28.35
2019-05-23T11:36:02.667Z,27.30
2019-05-23T11:38:31.299Z,26.76
2019-05-23T11:41:00.025Z,27.54
2019-05-23T11:43:28.422Z,27.90
2019-05-23T11:46:01.131Z,27.09
2019-05-23T11:48:30.195Z,27.04
2019-05-23T11:50:59.384Z,27.81
2019-05-23T11:53:28.460Z,27.81
2019-05-23T11:55:57.153Z,28.66
2019-05-23T11:58:25.837Z,29.27
2019-05-23T12:01:04.636Z,28.34
2019-05-23T12:03:33.050Z,31.18
2019-05-23T12:06:05.299Z,28.79
2019-05-23T12:08:32.143Z,28.79
2019-05-23T12:11:00.534Z,30.58
2019-05-23T12:13:29.303Z,29.45
2019-05-23T12:15:57.708Z,28.78
2019-05-23T12:18:26.185Z,28.78
2019-05-23T12:20:59.632Z,31.33
2019-05-23T12:23:27.226Z,29.86
2019-05-23T12:25:56.054Z,29.86
2019-05-23T12:28:25.032Z,28.90
2019-05-23T12:30:53.493Z,28.51
2019-05-23T12:33:21.982Z,27.73
2019-05-23T12:35:50.367Z,30.20
2019-05-23T12:38:19.137Z,29.85
2019-05-23T12:40:47.543Z,28.77
2019-05-23T12:43:16.022Z,32.64
2019-05-23T12:45:44.430Z,30.79
2019-05-23T12:48:26.882Z,30.38
2019-05-23T12:50:56.986Z,30.16
2019-05-23T12:53:25.524Z,29.51
2019-05-23T12:55:54.210Z,29.18
2019-05-23T12:58:23.760Z,29.53
2019-05-23T13:00:54.226Z,29.48
2019-05-23T13:03:23.401Z,29.16
2019-05-23T13:05:51.801Z,30.40
2019-05-23T13:08:20.201Z,28.75
2019-05-23T13:10:48.625Z,29.66
2019-05-23T13:13:17.161Z,28.24
2019-05-23T13:15:45.855Z,30.53
2019-05-23T13:18:14.227Z,30.53
2019-05-23T13:20:42.904Z,29.61
2019-05-23T13:23:20.266Z,29.63
2019-05-23T13:25:41.916Z,29.48
2019-05-23T13:28:10.387Z,29.60
2019-05-23T13:30:38.865Z,29.29
2019-05-23T13:33:07.297Z,28.47
2019-05-23T13:35:35.941Z,28.02
2019-05-23T13:38:04.491Z,28.02
2019-05-23T13:40:33.103Z,29.96
2019-05-23T13:43:06.411Z,29.96
2019-05-23T13:45:31.781Z,30.81
2019-05-23T13:48:00.261Z,30.02
2019-05-23T13:50:28.914Z,31.44
2019-05-23T13:52:57.464Z,28.48
2019-05-23T13:55:26.344Z,28.48
2019-05-23T13:57:54.746Z,29.78
2019-05-23T14:00:25.142Z,30.86
2019-05-23T14:02:53.604Z,30.92
2019-05-23T14:05:22.763Z,28.50
2019-05-23T14:07:51.234Z,28.50
2019-05-23T14:10:19.980Z,31.15
2019-05-23T14:12:48.730Z,31.15
2019-05-23T14:15:19.419Z,28.46
2019-05-23T14:17:48.840Z,31.01
2019-05-23T14:20:17.365Z,28.58
2019-05-23T14:23:03.898Z,28.67
2019-05-23T14:25:32.940Z,28.51
2019-05-23T14:28:06.264Z,26.26
2019-05-23T14:30:39.144Z,26.68
2019-05-23T14:33:27.904Z,26.73
2019-05-23T14:35:58.030Z,28.45
2019-05-23T14:38:31.150Z,25.89
2019-05-23T14:40:58.523Z,26.78
2019-05-23T14:43:27.816Z,28.66
2019-05-23T14:46:07.241Z,26.92
2019-05-23T14:48:53.932Z,28.23
2019-05-23T14:51:40.305Z,25.28
2019-05-23T14:54:28.778Z,29.42
2019-05-23T14:56:57.349Z,27.31
2019-05-23T14:59:27.062Z,25.42
2019-05-23T15:01:55.547Z,26.50
2019-05-23T15:04:24.015Z,24.77
2019-05-23T15:06:52.619Z,25.46
2019-05-23T15:09:21.957Z,27.85
2019-05-23T15:11:50.402Z,28.57
2019-05-23T15:14:18.954Z,29.46
2019-05-23T15:16:47.354Z,29.50
2019-05-23T15:19:37.868Z,28.49
2019-05-23T15:21:46.256Z,28.77
2019-05-23T15:24:14.687Z,31.83
2019-05-23T15:26:43.270Z,31.48
2019-05-23T15:29:11.994Z,28.58
2019-05-23T15:31:40.487Z,28.47
2019-05-23T15:34:08.889Z,30.62
2019-05-23T15:36:37.346Z,30.89
2019-05-23T15:39:10.231Z,29.27
2019-05-23T15:41:38.547Z,30.34
2019-05-23T15:44:23.736Z,29.59
2019-05-23T15:46:37.692Z,30.40
2019-05-23T15:49:06.896Z,31.27
2019-05-23T15:51:36.944Z,32.59
2019-05-23T15:54:07.346Z,30.15
2019-05-23T15:56:43.294Z,29.57
2019-05-23T15:59:16.889Z,30.61
2019-05-23T16:01:46.922Z,30.44
2019-05-23T16:04:25.196Z,32.16
2019-05-23T16:06:54.533Z,31.93
2019-05-23T16:09:29.918Z,30.54
2019-05-23T16:11:54.386Z,31.57
2019-05-23T16:14:23.894Z,28.75
2019-05-23T16:16:56.182Z,30.24
2019-05-23T16:19:23.230Z,30.24
2019-05-23T16:21:52.138Z,30.51
2019-05-23T16:24:21.184Z,30.91
2019-05-23T16:26:49.757Z,31.01
2019-05-23T16:29:19.796Z,29.34
2019-05-23T16:31:48.230Z,33.01
2019-05-23T16:34:16.708Z,30.87
2019-05-23T16:36:45.142Z,32.54
2019-05-23T16:39:13.919Z,31.61
2019-05-23T16:41:42.510Z,31.06
2019-05-23T16:44:10.977Z,33.36
2019-05-23T16:46:39.746Z,34.98
2019-05-23T16:49:08.224Z,33.10
2019-05-23T16:51:36.693Z,31.90
2019-05-23T16:54:05.583Z,34.14
2019-05-23T16:56:38.873Z,32.72
2019-05-23T16:59:11.711Z,32.72
2019-05-23T17:02:05.644Z,33.17
2019-05-23T17:04:43.858Z,33.22
2019-05-23T17:07:17.711Z,34.81
2019-05-23T17:10:06.594Z,36.83
2019-05-23T17:12:22.311Z,36.83
2019-05-23T17:15:07.542Z,38.71
2019-05-23T17:18:00.162Z,37.22
2019-05-23T17:20:18.965Z,37.43
2019-05-23T17:22:53.504Z,37.26
2019-05-23T17:25:23.549Z,37.80
2019-05-23T17:27:53.696Z,37.67
2019-05-23T17:30:29.653Z,38.19
2019-05-23T17:32:58.042Z,37.88
2019-05-23T17:35:26.626Z,39.45
2019-05-23T17:37:55.190Z,40.10
2019-05-23T17:40:25.533Z,40.69
2019-05-23T17:42:54.298Z,42.27
2019-05-23T17:45:22.842Z,45.05
2019-05-23T17:47:51.856Z,45.42
2019-05-23T17:50:20.694Z,47.66
2019-05-23T17:52:49.161Z,49.43
2019-05-23T17:55:17.857Z,47.67
2019-05-23T17:57:46.266Z,45.36
2019-05-23T18:00:16.396Z,45.48
2019-05-23T18:02:45.349Z,43.65
2019-05-23T18:05:13.764Z,43.33
2019-05-23T18:07:42.521Z,44.01
2019-05-23T18:10:12.843Z,45.47
2019-05-23T18:12:41.516Z,46.70
2019-05-23T18:15:13.082Z,46.03
2019-05-23T18:17:41.487Z,45.79
2019-05-23T18:20:10.443Z,46.36
2019-05-23T18:22:39.626Z,45.68
2019-05-23T18:25:09.920Z,46.78
2019-05-23T18:27:38.982Z,47.03
2019-05-23T18:30:09.575Z,49.00
2019-05-23T18:32:38.749Z,50.15
2019-05-23T18:35:09.907Z,49.04
2019-05-23T18:37:38.591Z,47.59
2019-05-23T18:40:07.841Z,48.74
2019-05-23T18:42:36.432Z,48.98
2019-05-23T18:45:07.557Z,48.29
2019-05-23T18:47:37.652Z,50.99
2019-05-23T18:50:10.135Z,50.88
2019-05-23T18:52:38.541Z,50.11
2019-05-23T18:55:08.277Z,47.32
2019-05-23T18:57:37.049Z,47.82
2019-05-23T19:00:07.675Z,47.79
2019-05-23T19:02:36.340Z,48.85
2019-05-23T19:05:08.608Z,51.70
2019-05-23T19:07:39.049Z,51.18
2019-05-23T19:10:08.947Z,50.43
2019-05-23T19:12:37.806Z,49.47
2019-05-23T19:15:07.354Z,49.36
2019-05-23T19:17:37.497Z,50.52
2019-05-23T19:20:09.131Z,52.19
2019-05-23T19:22:38.977Z,53.47
2019-05-23T19:25:09.741Z,53.15
2019-05-23T19:27:38.691Z,54.22
2019-05-23T19:30:08.315Z,53.61
2019-05-23T19:32:36.816Z,52.05
2019-05-23T19:35:06.926Z,52.80
2019-05-23T19:37:35.424Z,53.48
2019-05-23T19:40:08.317Z,55.35
2019-05-23T19:42:37.107Z,56.02
2019-05-23T19:45:07.179Z,56.37
2019-05-23T19:47:35.569Z,56.22
2019-05-23T19:50:05.425Z,56.12
2019-05-23T19:52:33.917Z,56.34
2019-05-23T19:55:02.295Z,58.08
2019-05-23T19:57:31.356Z,57.69
2019-05-23T19:59:59.840Z,57.20
2019-05-23T20:02:30.062Z,58.44
2019-05-23T20:05:03.379Z,58.18
2019-05-23T20:07:31.853Z,57.13
2019-05-23T20:10:01.357Z,58.31
2019-05-23T20:12:29.881Z,58.98
2019-05-23T20:14:58.285Z,60.24
2019-05-23T20:17:26.714Z,60.76
2019-05-23T20:19:55.367Z,60.18
2019-05-23T20:22:23.843Z,60.55
2019-05-23T20:24:52.244Z,62.09
2019-05-23T20:27:20.729Z,61.65
2019-05-23T20:29:49.130Z,60.86
2019-05-23T20:32:17.622Z,59.28
2019-05-23T20:34:46.021Z,59.24
2019-05-23T20:37:14.505Z,59.82
2019-05-23T20:39:42.938Z,61.30
2019-05-23T20:42:12.212Z,61.62
2019-05-23T20:44:40.676Z,62.49
2019-05-23T20:47:09.611Z,62.02
2019-05-23T20:49:38.305Z,61.58
2019-05-23T20:52:06.767Z,63.22
2019-05-23T20:54:35.189Z,62.55
2019-05-23T20:57:04.321Z,62.07
2019-05-23T20:59:32.831Z,62.96
2019-05-23T21:02:01.966Z,62.18
2019-05-23T21:04:30.458Z,61.20
2019-05-23T21:06:58.873Z,60.79
2019-05-23T21:09:27.295Z,60.72
2019-05-23T21:11:55.722Z,62.33
2019-05-23T21:14:24.199Z,63.45
2019-05-23T21:16:52.675Z,63.09
2019-05-23T21:19:21.163Z,62.70
2019-05-23T21:21:49.553Z,64.04
2019-05-23T21:24:18.324Z,64.75
2019-05-23T21:26:46.721Z,64.66
2019-05-23T21:29:15.212Z,64.41
2019-05-23T21:31:43.608Z,64.02
2019-05-23T21:34:12.388Z,63.32
2019-05-23T21:36:40.782Z,64.06
2019-05-23T21:39:11.199Z,64.03
2019-05-23T21:41:39.974Z,63.35
2019-05-23T21:44:08.392Z,63.08
2019-05-23T21:46:36.859Z,63.10
2019-05-23T21:49:05.546Z,63.07
2019-05-23T21:51:34.316Z,63.03
2019-05-23T21:54:02.734Z,63.53
2019-05-23T21:56:31.442Z,63.54
2019-05-23T21:58:59.856Z,64.67
2019-05-23T22:01:30.164Z,64.80
2019-05-23T22:04:03.038Z,64.47
2019-05-23T22:06:35.784Z,64.39
2019-05-23T22:09:07.307Z,65.19
2019-05-23T22:11:35.789Z,67.06
2019-05-23T22:14:04.362Z,66.51
2019-05-23T22:16:32.862Z,65.37
2019-05-23T22:19:01.329Z,65.21
2019-05-23T22:21:29.976Z,64.66
2019-05-23T22:23:58.392Z,65.86
2019-05-23T22:26:26.814Z,65.79
2019-05-23T22:28:55.482Z,65.16
2019-05-23T22:31:24.397Z,66.04
2019-05-23T22:34:10.545Z,66.73
2019-05-23T22:36:39.022Z,66.20
2019-05-23T22:39:08.463Z,65.86
2019-05-23T22:41:37.538Z,66.40
2019-05-23T22:44:07.638Z,67.13
2019-05-23T22:46:36.378Z,67.20
2019-05-23T22:49:04.889Z,67.62
2019-05-23T22:51:33.275Z,66.91
2019-05-23T22:54:03.522Z,66.93
2019-05-23T22:56:31.954Z,66.57
2019-05-23T22:59:00.600Z,67.13
2019-05-23T23:01:29.946Z,66.50
2019-05-23T23:03:58.354Z,66.55
2019-05-23T23:06:27.134Z,67.82
2019-05-23T23:08:55.633Z,67.48
2019-05-23T23:11:24.454Z,67.51
2019-05-23T23:13:52.860Z,67.35
2019-05-23T23:16:21.254Z,67.12
2019-05-23T23:18:49.847Z,67.47
2019-05-23T23:21:18.260Z,67.17
2019-05-23T23:23:46.732Z,67.11
2019-05-23T23:26:15.145Z,68.15
2019-05-23T23:28:43.535Z,67.85
2019-05-23T23:31:11.945Z,67.74
2019-05-23T23:33:40.353Z,67.66
2019-05-23T23:36:08.766Z,67.70
2019-05-23T23:38:37.258Z,67.37
2019-05-23T23:41:05.654Z,68.07
2019-05-23T23:43:34.141Z,68.90
2019-05-23T23:46:20.386Z,70.10
2019-05-23T23:49:06.639Z,69.18
2019-05-23T23:51:52.619Z,68.46
2019-05-23T23:54:38.905Z,68.59
2019-05-23T23:57:25.110Z,69.76
2019-05-23T23:59:52.922Z,69.65
